< < Back
Terminal Aerodrome Forecast


Current Version              Previous Versions:   1  2  3  4  5  6  7  8  9  

Terminal Aerodrome Forecast

951
FTUS42 KILM 261720
TAFFLO
TAF
KFLO 261720Z 2618/2718 21006KT P6SM SCT040 SCT080
     FM271200 25007KT P6SM SKC=

Latest METAR

774
SAUS70 KWBC 270656
MTRFLO
METAR KFLO 270653Z AUTO 24007KT 10SM CLR 27/23 A3000 RMK AO2 SLP156
T02720233


USA.gov is the U.S. government's official web portal to all federal, state and local government web resources and services.